Burns Pinion Ridge Reserve, California Weather observations

Data are for 10 minute period ending at time listed.
 Day   Time   Solar   Ave.   Ave.  Ave.  Vector  Max.   Baro.   Total    
  of    of     Rad.   Air    Rel.  Wind   Wind   Wind  Press.  Precip.   
Year   Day            Temp.  Hum.  Speed  Dir.   Gust                    
2016   (PST)  Kw/m2    F      %     mph   deg.    mph    mb.     in.     
-------------------------------------------------------------------------
 210   16:10   0.49   97.5    14    5.9   194    15.2   874.4    0.00 
 210   16:20   0.45   97.7    14    7.3   204    17.2   874.3    0.00 
 210   16:30   0.42   97.2    14    6.3   195    12.6   874.2    0.00 
 210   16:40   0.39   97.3    14    6.5   196    12.3   874.2    0.00 
 210   16:50   0.35   97.4    14    6.0   193    14.7   874.1    0.00 
 210   17:00   0.32   96.3    14    7.1   202    12.9   874.0    0.00 
 210   17:10   0.28   95.5    14    7.4   203    14.0   874.0    0.00 
 210   17:20   0.25   95.5    14    6.2   211    12.1   873.9    0.00 
 210   17:30   0.21   95.0    14    7.4   202    12.9   873.9    0.00 
 210   17:40   0.18   95.1    14    6.6   200    12.9   873.9    0.00 
 210   17:50   0.15   94.9    14    6.2   208    12.0   874.0    0.00 
 210   18:00   0.12   94.5    14    6.1   187    12.5   874.0    0.00 
 210   18:10   0.09   93.8    15    6.4   213    11.0   874.1    0.00 
 210   18:20   0.06   92.8    15    6.3   204    11.1   874.1    0.00 
 210   18:30   0.03   92.0    15    6.6   196    12.2   874.2    0.00 
 210   18:40   0.02   91.0    16    4.8   177    10.4   874.4    0.00 
 210   18:50   0.01   90.0    17    6.0   194    10.7   874.4    0.00 
 210   19:00   0.00   89.5    17    5.2   191    10.7   874.5    0.00 
 210   19:10   0.00   88.9    17    5.1   192    10.4   874.6    0.00 
 210   19:20   0.00   88.6    18    5.5   202     9.7   874.7    0.00 
 210   19:30   0.00   88.4    18    5.7   205     8.1   874.8    0.00 
 210   19:40   0.00   88.3    18    5.4   209     7.7   874.9    0.00 
 210   19:50   0.00   87.9    18    4.3   226     6.4   875.0    0.00 
 210   20:00   0.00   87.6    18    4.1   232     6.0   875.1    0.00 
 210   20:10   0.00   87.4    18    5.4   191     7.6   875.1    0.00 
 210   20:20   0.00   87.0    19    6.2   174     9.7   875.2    0.00 
 210   20:30   0.00   87.0    19    7.1   178    11.1   875.3    0.00 
 210   20:40   0.00   86.7    19    4.9   179     7.8   875.4    0.00 
 210   20:50   0.00   86.6    19    5.2   191     8.7   875.6    0.00 
 210   21:00   0.00   86.3    19    4.9   208     8.3   875.7    0.00 
 210   21:10   0.00   86.3    20    4.4   224     6.5   875.8    0.00 
 210   21:20   0.00   86.0    20    8.4   213    14.4   875.9    0.00 
 210   21:30   0.00   86.0    20    6.8   209    11.5   876.0    0.00 
 210   21:40   0.00   85.6    20    5.9   207    13.6   876.0    0.00 
 210   21:50   0.00   85.5    20    6.7   208    13.3   876.1    0.00 
 210   22:00   0.00   85.2    20    4.3   204    10.6   876.1    0.00 
 210   22:10   0.00   85.2    21    6.4   183    13.7   876.1    0.00 
 210   22:20   0.00   85.1    21    5.9   197    14.1   876.1    0.00 
 210   22:30   0.00   84.9    21    6.0   205    12.7   876.2    0.00 
 210   22:40   0.00   84.7    21    6.1   198    13.2   876.3    0.00 
 210   22:50   0.00   84.3    21    4.9   195     9.3   876.4    0.00 
 210   23:00   0.00   84.3    21    7.1   214    13.7   876.4    0.00 
 210   23:10   0.00   84.4    21    8.6   210    13.5   876.4    0.00 
 210   23:20   0.00   84.3    21    8.2   212    12.3   876.3    0.00 
 210   23:30   0.00   84.1    22    6.0   215    11.0   876.1    0.00 
 210   23:40   0.00   83.9    23    5.9   214     8.6   876.0    0.00 
 210   23:50   0.00   83.9    24    6.8   214    11.1   875.8    0.00 
 211    0:00   0.00   83.9    24    5.2   215    10.7   875.9    0.00 
 211    0:10   0.00   83.5    26    5.9   211     9.1   537.5    0.00 
 211    0:20   0.00   83.6    28    7.2   208     9.9   502.0    0.00 
 211    0:30   0.00   83.5    28    7.1   210    11.0   502.0    0.00 
 211    0:40   0.00   83.3    28    5.0   213     9.3   502.0    0.00 
 211    0:50   0.00   82.8    30    4.1   229     7.1   502.0    0.00 
 211    1:00   0.00   82.5    30    4.6   230     7.0   502.0    0.00 
 211    1:10   0.00   82.3    31    3.8   232     6.3   840.1    0.00 
 211    1:20   0.00   81.9    32    4.3   229     6.4   875.7    0.00 
 211    1:30   0.00   81.8    33    4.4   227     6.7   875.6    0.00 
 211    1:40   0.00   81.6    34    4.8   226     7.2   875.5    0.00 
 211    1:50   0.00   81.5    35    4.5   216     6.1   875.5    0.00 
 211    2:00   0.00   81.1    36    3.3   226     4.7   875.5    0.00 
 211    2:10   0.00   79.9    38    2.0   218     3.1   873.7    0.00 
 211    2:20   0.00   78.9    39    3.1   229     4.6   875.5    0.00 
 211    2:30   0.00   79.4    37    4.2   221     5.8   875.4    0.00 
 211    2:40   0.00   80.1    35    4.7   226     7.0   875.3    0.00 
 211    2:50   0.00   80.4    34    3.1   229     5.8   875.3    0.00 
 211    3:00   0.00   79.3    36    2.6   231     4.5   875.4    0.00 
 211    3:10   0.00   79.2    37    2.9   225     4.7   873.5    0.00 
 211    3:20   0.00   79.2    37    4.5   224     6.6   875.3    0.00 
 211    3:30   0.00   80.6    36    5.8   205     7.3   875.2    0.00 
 211    3:40   0.00   80.9    35    5.2   208     7.2   875.2    0.00 
 211    3:50   0.00   80.7    35    5.6   210     6.8   875.2    0.00 
 211    4:00   0.00   80.5    36    4.6   209     5.6   875.2    0.00 
 211    4:10   0.00   80.2    36    4.4   213     5.9   875.2    0.00 
 211    4:20   0.00   80.0    36    4.8   210     5.7   875.2    0.00 
 211    4:30   0.00   80.1    35    4.6   213     5.8   875.4    0.00 
 211    4:40   0.00   80.2    34    5.9   210     8.1   875.4    0.00 
 211    4:50   0.00   81.4    32    7.5   200     9.3   875.4    0.00 
 211    5:00   0.00   81.7    31    8.1   202    10.1   875.4    0.00 
 211    5:10   0.01   82.0    30    8.1   203    11.5   875.6    0.00 
 211    5:20   0.01   82.0    31    6.9   209    11.8   875.7    0.00 
 211    5:30   0.02   81.5    32    5.4   220     8.3   875.8    0.00 
 211    5:40   0.05   81.8    31    6.6   222    13.0   875.8    0.00 
 211    5:50   0.09   82.4    30    7.0   222    14.9   875.9    0.00 
 211    6:00   0.12   82.6    30    5.4   227     9.9   875.9    0.00 
 211    6:10   0.15   82.6    28    7.9   213    14.0   876.1    0.00 
 211    6:20   0.19   81.9    27   11.9   212    19.6   876.2    0.00 
 211    6:30   0.22   81.1    28   11.6   208    18.0   876.1    0.00 
 211    6:40   0.26   81.0    28    9.8   200    16.7   876.0    0.00 
 211    6:50   0.29   82.0    28    8.2   191    12.2   876.0    0.00 
 211    7:00   0.33   82.3    28    8.5   182    11.7   876.1    0.00 
 211    7:10   0.36   83.0    27    8.0   189    12.0   876.2    0.00 
 211    7:20   0.40   82.4    28    8.8   191    13.4   876.3    0.00 
 211    7:30   0.43   83.2    27    8.1   199    11.7   876.3    0.00 
 211    7:40   0.47   83.7    26    7.6   196    12.2   876.2    0.00 
 211    7:50   0.50   84.7    26    6.9   195    10.4   876.2    0.00 
 211    8:00   0.54   86.2    24    6.6   198     9.7   876.1    0.00 
 211    8:10   0.57   87.3    24    4.9   189     8.0   876.0    0.00 
 211    8:20   0.60   88.7    22    3.9   173     6.9   876.1    0.00 
 211    8:30   0.63   89.3    22    4.5   140     8.3   876.1    0.00 
 211    8:40   0.66   90.6    21    6.8   163     9.3   876.1    0.00 
 211    8:50   0.69   91.3    21    6.3   174     8.9   876.1    0.00 
 211    9:00   0.72   91.9    20    5.6   171     9.7   876.0    0.00 
 211    9:10   0.75   93.0    19    6.5   186    10.2   876.0    0.00 
 211    9:20   0.78   93.8    18    6.0   174    10.3   876.0    0.00 
 211    9:30   0.80   93.0    17    6.5   194    10.4   875.9    0.00 
 211    9:40   0.82   94.4    16    4.5   182     7.9   875.9    0.00 
 211    9:50   0.85   96.0    15    2.2   188     6.1   875.9    0.00 
 211   10:00   0.86   96.5    15    4.6   145     7.6   875.8    0.00 
 211   10:10   0.89   96.8    16    5.7   159    12.3   875.8    0.00 
 211   10:20   0.90   96.5    17    6.7   144    12.3   875.8    0.00 
 211   10:30   0.92   96.8    17    7.0   154    12.6   875.8    0.00 
 211   10:40   0.93   96.7    17    7.0   149    11.0   875.7    0.00 
 211   10:50   0.95   97.3    17    5.8   159    12.7   875.6    0.00 
 211   11:00   0.98   98.8    17    4.0   166     9.0   875.6    0.00 
 211   11:10   0.97   99.2    16    5.2   182    11.2   875.6    0.00 
 211   11:20   1.00   98.6    17    3.9   195    10.5   875.5    0.00 
 211   11:30   0.83   98.7    17    5.5   212    12.1   875.5    0.00 
 211   11:40   0.86   97.6    17    5.5   201    12.9   875.4    0.00 
 211   11:50   0.98   97.8    17    6.7   207    14.1   875.3    0.00 
 211   12:00   0.98   98.1    17    6.3   174    14.4   875.2    0.00 
 211   12:10   0.86   98.5    17    7.0   157    14.5   875.1    0.00 
 211   12:20   0.97   99.3    18    7.0   162    16.7   875.1    0.00 
 211   12:30   0.98   98.2    19    6.9   186    14.5   875.0    0.00 
 211   12:40   1.00   97.3    20    9.3   204    15.3   875.0    0.00 
 211   12:50   0.99   96.1    20    9.4   209    16.8   875.0    0.00 
 211   13:00   0.90   97.2    20    8.2   202    15.0   874.9    0.00 
 211   13:10   0.83   95.8    22    8.6   210    15.4   874.9    0.00 
 211   13:20   0.93   96.1    22    7.5   208    18.7   874.8    0.00 
 211   13:30   0.90   96.8    23    8.2   197    17.4   874.8    0.00 
 211   13:40   0.89   95.6    23    8.5   204    18.6   874.7    0.00 
 211   13:50   0.87   96.7    22    8.8   213    16.7   874.6    0.00 
 211   14:00   0.86   97.0    21    8.2   185    17.7   874.4    0.00 
 211   14:10   0.84   97.6    20    7.4   192    17.5   874.3    0.00 
 211   14:20   0.82   98.4    19    7.5   207    16.6   874.2    0.00 
 211   14:30   0.80   97.4    19    8.8   213    18.6   874.0    0.00 
 211   14:40   0.78   97.3    18    8.9   212    17.8   873.9    0.00 
 211   14:50   0.75   96.9    18    9.5   213    19.2   873.8    0.00 
 211   15:00   0.73   97.0    18    9.9   220    19.6   873.7    0.00 
 211   15:10   0.37   97.8    18    7.9   218    16.5   873.7    0.00 
 211   15:20   0.10   93.7    20   10.2   211    19.9   873.6    0.00 
 211   15:30   0.16   93.5    20    9.2   211    16.7   873.5    0.00 
 211   15:40   0.38   94.7    20   10.6   210    18.5   873.4    0.00 
 211   15:50   0.49   95.9    18    9.2   210    16.4   873.3    0.00 
 211   16:00   0.50   96.8    18   10.1   214    19.2   873.3    0.00 

Return to Burns Pinion Ridge Reserve graphs page.


Western Regional Climate Center,wrcc@dri.edu